Time;durP1;ratioP1;P1;durP2;ratioP2;P2;SDS_P1;SDS_P2;PMS_P1;PMS_P2;Temp;Humidity;BMP_temperature;BMP_pressure;BME280_temperature;BME280_humidity;BME280_pressure;Samples;Min_cycle;Max_cycle;Signal;HPM_P1;HPM_P2
2022/03/23 00:01:34;;;;;;;20.57;12.73;;;3.10;48.30;;;;;;5012076;28;20438;-52
2022/03/23 00:04:01;;;;;;;23.37;13.23;;;3.10;48.60;;;;;;5004901;28;20207;-53
2022/03/23 00:06:27;;;;;;;25.73;13.53;;;3.00;48.60;;;;;;5007382;28;20434;-52
2022/03/23 00:08:53;;;;;;;29.97;13.90;;;3.00;49.00;;;;;;5011000;28;20988;-52
2022/03/23 00:11:19;;;;;;;25.20;13.67;;;3.00;49.00;;;;;;5011477;28;20956;-51
2022/03/23 00:13:45;;;;;;;22.77;13.10;;;2.90;49.00;;;;;;5010421;28;20470;-50
2022/03/23 00:16:10;;;;;;;23.37;13.47;;;2.90;49.10;;;;;;5011218;28;20924;-52
2022/03/23 00:18:36;;;;;;;22.57;13.00;;;2.90;49.70;;;;;;5034715;28;20177;-52
2022/03/23 00:21:02;;;;;;;24.73;13.50;;;2.90;49.10;;;;;;5008325;28;20586;-54
2022/03/23 00:23:28;;;;;;;23.27;12.83;;;2.80;49.00;;;;;;5009279;28;20175;-50
2022/03/23 00:25:54;;;;;;;22.00;12.63;;;2.80;49.10;;;;;;5009191;28;20192;-55
2022/03/23 00:28:19;;;;;;;24.83;14.20;;;2.80;49.20;;;;;;5010009;28;20279;-52
2022/03/23 00:30:48;;;;;;;24.53;12.20;;;2.80;49.30;;;;;;5010591;28;20995;-50
2022/03/23 00:33:15;;;;;;;22.00;12.90;;;2.80;49.40;;;;;;5007545;28;20216;-56
2022/03/23 00:35:41;;;;;;;23.33;12.27;;;2.80;49.40;;;;;;5007556;28;20438;-50
2022/03/23 00:38:07;;;;;;;25.77;14.37;;;2.70;49.40;;;;;;5009784;28;20412;-51
2022/03/23 00:40:33;;;;;;;23.10;13.77;;;2.70;49.50;;;;;;5013316;28;20442;-54
2022/03/23 00:43:01;;;;;;;26.70;14.57;;;2.70;49.50;;;;;;5008894;28;20493;-51
2022/03/23 00:45:27;;;;;;;23.90;14.50;;;2.70;49.60;;;;;;5004120;28;20427;-50
2022/03/23 00:47:53;;;;;;;24.47;13.40;;;2.60;49.40;;;;;;5010032;28;20420;-53
2022/03/23 00:50:19;;;;;;;27.13;13.90;;;2.60;49.50;;;;;;5005901;28;20451;-50
2022/03/23 00:52:46;;;;;;;25.00;13.67;;;2.50;49.70;;;;;;5009951;28;20653;-52
2022/03/23 00:55:11;;;;;;;25.70;13.90;;;2.50;49.80;;;;;;5008476;28;20256;-54
2022/03/23 00:57:38;;;;;;;24.50;13.00;;;2.40;49.90;;;;;;5011268;28;20851;-51
2022/03/23 01:00:06;;;;;;;27.00;13.73;;;2.40;50.00;;;;;;5008355;28;20291;-55
2022/03/23 01:02:34;;;;;;;23.83;13.60;;;2.40;50.10;;;;;;5009061;28;20472;-55
2022/03/23 01:05:01;;;;;;;24.90;13.90;;;2.30;50.10;;;;;;5005849;28;20475;-54
2022/03/23 01:07:27;;;;;;;24.47;12.97;;;2.30;50.20;;;;;;5011163;28;20449;-51
2022/03/23 01:09:52;;;;;;;24.93;13.03;;;2.30;50.30;;;;;;5011326;28;20432;-51
2022/03/23 01:12:18;;;;;;;24.07;12.57;;;2.30;50.30;;;;;;5006906;28;21104;-56
2022/03/23 01:14:44;;;;;;;28.03;13.60;;;2.30;50.40;;;;;;5008825;28;20183;-49
2022/03/23 01:17:09;;;;;;;23.23;13.10;;;2.30;50.30;;;;;;5008749;28;20200;-52
2022/03/23 01:19:35;;;;;;;23.47;12.83;;;2.20;50.40;;;;;;5009764;28;20204;-52
2022/03/23 01:22:02;;;;;;;25.07;13.93;;;2.20;50.50;;;;;;5010205;28;20664;-52
2022/03/23 01:24:27;;;;;;;24.03;12.90;;;2.20;50.60;;;;;;5008078;28;20530;-49
2022/03/23 01:26:53;;;;;;;23.97;13.10;;;2.20;50.80;;;;;;5007710;28;20533;-54
2022/03/23 01:29:20;;;;;;;20.73;12.77;;;2.10;50.80;;;;;;5007731;28;20198;-55
2022/03/23 01:31:46;;;;;;;23.70;13.10;;;2.10;50.80;;;;;;5008328;28;20963;-52
2022/03/23 01:34:12;;;;;;;30.20;13.63;;;2.10;51.00;;;;;;5005780;28;20459;-51
2022/03/23 01:36:37;;;;;;;22.10;13.17;;;2.00;51.00;;;;;;5008121;28;20179;-53
2022/03/23 01:39:03;;;;;;;22.80;12.80;;;1.90;51.10;;;;;;5011113;28;20619;-54
2022/03/23 01:41:30;;;;;;;19.60;12.53;;;1.90;51.20;;;;;;5006964;28;20263;-51
2022/03/23 01:43:55;;;;;;;22.70;13.23;;;1.90;51.40;;;;;;5004074;28;21169;-52
2022/03/23 01:46:21;;;;;;;25.00;13.33;;;1.90;51.50;;;;;;5008973;28;20504;-54
2022/03/23 01:48:47;;;;;;;28.57;13.23;;;1.90;51.50;;;;;;5007237;28;20184;-54
2022/03/23 01:51:14;;;;;;;23.40;12.97;;;1.80;51.50;;;;;;5006558;28;20603;-52
2022/03/23 01:53:40;;;;;;;25.87;13.60;;;1.80;51.50;;;;;;5007973;28;20792;-49
2022/03/23 01:56:07;;;;;;;24.40;13.40;;;1.80;51.70;;;;;;5009137;28;20917;-50
2022/03/23 01:58:33;;;;;;;26.00;14.37;;;1.70;51.70;;;;;;5009611;28;20415;-50
2022/03/23 02:00:59;;;;;;;31.43;13.53;;;1.70;51.80;;;;;;5004623;28;20474;-51
2022/03/23 02:03:26;;;;;;;27.57;13.70;;;1.70;51.80;;;;;;5003591;28;20235;-53
2022/03/23 02:05:51;;;;;;;24.40;12.47;;;1.70;51.80;;;;;;5003672;28;20443;-50
2022/03/23 02:08:17;;;;;;;26.23;13.40;;;1.60;51.70;;;;;;5003148;28;20431;-51
2022/03/23 02:10:43;;;;;;;25.83;13.70;;;1.60;51.70;;;;;;5033512;23;20227;-61
2022/03/23 02:13:11;;;;;;;26.47;12.97;;;1.60;51.90;;;;;;5017184;28;20207;-61
2022/03/23 02:15:37;;;;;;;23.33;12.50;;;1.50;52.00;;;;;;5011429;28;20333;-61
2022/03/23 02:18:03;;;;;;;25.03;13.13;;;1.50;52.10;;;;;;5003871;28;20424;-60
2022/03/23 02:20:30;;;;;;;26.07;13.43;;;1.50;52.20;;;;;;5019068;28;20622;-59
2022/03/23 02:22:56;;;;;;;32.20;14.17;;;1.40;52.10;;;;;;5021823;28;20434;-59
2022/03/23 02:25:25;;;;;;;26.73;13.47;;;1.40;52.20;;;;;;5031401;28;20421;-59
2022/03/23 02:27:52;;;;;;;24.60;14.40;;;1.40;52.30;;;;;;5023689;28;20658;-59
2022/03/23 02:30:19;;;;;;;23.50;13.57;;;1.40;52.30;;;;;;5028729;28;20537;-59
2022/03/23 02:32:45;;;;;;;25.40;13.90;;;1.40;52.50;;;;;;5032088;28;20479;-60
2022/03/23 02:35:11;;;;;;;35.60;14.53;;;1.40;52.60;;;;;;5028815;28;20435;-60
2022/03/23 02:37:38;;;;;;;24.07;13.20;;;1.40;52.80;;;;;;5028869;28;20509;-60
2022/03/23 02:40:04;;;;;;;24.40;13.73;;;1.40;52.70;;;;;;5025145;28;20472;-60
2022/03/23 02:42:30;;;;;;;28.93;12.53;;;1.40;52.80;;;;;;5024732;28;20442;-60
2022/03/23 02:44:56;;;;;;;23.07;13.27;;;1.40;52.80;;;;;;5025832;28;20559;-60
2022/03/23 02:47:22;;;;;;;19.13;11.50;;;1.40;52.90;;;;;;5028533;28;20956;-60
2022/03/23 02:49:47;;;;;;;27.43;14.40;;;1.40;52.90;;;;;;5027432;28;20223;-60
2022/03/23 02:52:13;;;;;;;24.97;13.47;;;1.40;52.90;;;;;;5017916;28;20206;-59
2022/03/23 03:03:23;;;;;;;20.50;12.40;;;1.30;52.80;;;;;;5033732;28;20977;-60
2022/03/23 03:05:49;;;;;;;24.67;13.70;;;1.30;53.00;;;;;;5032294;28;20474;-60
2022/03/23 03:11:00;;;;;;;29.33;15.07;;;1.10;52.90;;;;;;5034200;28;20228;-60
2022/03/23 03:13:27;;;;;;;27.90;13.93;;;1.10;53.10;;;;;;5034796;28;20866;-60
2022/03/23 03:15:53;;;;;;;26.40;13.60;;;1.00;53.30;;;;;;5034933;28;20183;-60
2022/03/23 03:18:19;;;;;;;41.67;15.13;;;1.00;53.50;;;;;;5033223;28;20425;-60
2022/03/23 03:20:45;;;;;;;29.83;14.60;;;0.90;53.30;;;;;;5027817;28;20216;-60
2022/03/23 03:23:11;;;;;;;24.07;14.67;;;0.90;53.40;;;;;;5035872;28;21021;-60
2022/03/23 03:25:36;;;;;;;30.10;15.07;;;0.90;53.50;;;;;;5025918;28;20185;-60
2022/03/23 03:28:02;;;;;;;27.30;15.17;;;0.80;53.60;;;;;;5029292;28;20440;-59
2022/03/23 03:30:28;;;;;;;25.77;13.20;;;0.80;53.80;;;;;;5030247;28;20221;-59
2022/03/23 03:36:16;;;;;;;32.60;14.50;;;0.80;54.10;;;;;;5025857;28;20664;-59
2022/03/23 03:38:43;;;;;;;23.93;13.77;;;0.80;54.10;;;;;;5029285;28;20429;-59
2022/03/23 03:41:09;;;;;;;25.33;14.20;;;0.80;54.10;;;;;;5029000;28;20198;-59
2022/03/23 03:43:35;;;;;;;24.43;14.57;;;0.80;54.20;;;;;;5030822;28;20571;-59
2022/03/23 03:46:02;;;;;;;27.67;14.20;;;0.80;54.20;;;;;;5030877;28;20511;-60
2022/03/23 03:48:28;;;;;;;38.47;15.43;;;0.80;54.20;;;;;;5027230;28;20429;-60
2022/03/23 03:50:54;;;;;;;24.97;14.23;;;0.80;54.20;;;;;;5027716;28;20459;-59
2022/03/23 03:53:19;;;;;;;28.97;14.60;;;0.80;54.70;;;;;;5030544;28;20451;-60
2022/03/23 03:55:45;;;;;;;34.00;16.57;;;0.80;54.20;;;;;;5028228;28;20420;-60
2022/03/23 03:58:12;;;;;;;25.90;14.03;;;0.80;54.30;;;;;;5027983;28;20575;-60
2022/03/23 04:00:38;;;;;;;31.03;15.00;;;0.80;54.30;;;;;;5027564;28;20187;-60
2022/03/23 04:03:05;;;;;;;29.90;14.80;;;0.80;54.30;;;;;;5029665;28;20800;-60
2022/03/23 04:05:31;;;;;;;33.30;16.00;;;0.80;54.20;;;;;;5028242;28;21115;-59
2022/03/23 04:07:57;;;;;;;28.47;14.03;;;0.90;54.40;;;;;;5025849;28;20436;-60
2022/03/23 04:10:25;;;;;;;27.00;15.10;;;0.90;54.40;;;;;;5030080;28;22276;-61
2022/03/23 04:12:51;;;;;;;27.23;14.70;;;0.90;54.40;;;;;;5027622;28;20469;-60
2022/03/23 04:15:19;;;;;;;30.37;15.73;;;0.80;54.40;;;;;;5029070;28;20418;-60
2022/03/23 04:17:45;;;;;;;30.53;15.57;;;0.90;54.60;;;;;;5030873;28;20432;-60
2022/03/23 04:20:11;;;;;;;34.20;16.97;;;0.80;54.50;;;;;;5027969;28;20527;-60
2022/03/23 04:22:40;;;;;;;35.70;17.27;;;0.80;54.50;;;;;;5028127;28;20201;-60
2022/03/23 04:25:11;;;;;;;36.27;16.60;;;0.80;54.50;;;;;;5027093;28;20425;-60
2022/03/23 04:27:48;;;;;;;34.90;15.37;;;0.80;54.60;;;;;;5029738;28;20437;-60
2022/03/23 04:30:16;;;;;;;29.37;16.27;;;0.70;54.50;;;;;;5028647;28;20471;-60
2022/03/23 04:32:42;;;;;;;31.00;15.17;;;0.70;54.70;;;;;;5029656;28;20461;-60
2022/03/23 04:35:08;;;;;;;27.50;15.57;;;0.70;54.60;;;;;;5027011;28;20429;-60
2022/03/23 04:37:34;;;;;;;32.70;17.67;;;0.70;54.70;;;;;;5027267;28;20205;-60
2022/03/23 04:40:00;;;;;;;33.30;15.87;;;0.70;55.00;;;;;;5028756;28;20888;-60
2022/03/23 04:42:26;;;;;;;34.20;16.43;;;0.70;55.00;;;;;;5027240;28;20272;-60
2022/03/23 04:44:51;;;;;;;34.97;16.10;;;0.70;55.10;;;;;;5027528;28;20949;-61
2022/03/23 04:47:17;;;;;;;31.43;16.07;;;0.60;55.00;;;;;;5033386;28;20696;-60
2022/03/23 04:49:43;;;;;;;31.57;16.83;;;0.70;55.10;;;;;;5026933;28;20213;-59
2022/03/23 04:52:08;;;;;;;29.50;16.40;;;0.70;55.10;;;;;;5027338;28;20233;-59
2022/03/23 04:54:34;;;;;;;33.67;18.20;;;0.60;55.00;;;;;;5021114;28;20637;-58
2022/03/23 04:56:59;;;;;;;34.10;16.67;;;0.60;55.00;;;;;;5035252;28;20169;-58
2022/03/23 04:59:27;;;;;;;32.10;17.60;;;0.50;55.00;;;;;;5017490;28;20179;-56
2022/03/23 05:01:52;;;;;;;36.33;18.43;;;0.50;54.90;;;;;;5027970;28;20170;-59
2022/03/23 05:04:18;;;;;;;31.83;16.67;;;0.50;55.10;;;;;;5025986;28;20485;-59
2022/03/23 05:06:44;;;;;;;34.70;16.50;;;0.50;55.30;;;;;;5021707;28;20862;-60
2022/03/23 05:09:09;;;;;;;34.50;17.00;;;0.50;55.30;;;;;;5028162;28;20188;-59
2022/03/23 05:11:35;;;;;;;34.77;15.60;;;0.50;55.30;;;;;;5030799;28;20218;-61
2022/03/23 05:14:00;;;;;;;28.27;14.60;;;0.40;55.40;;;;;;5019857;28;20178;-60
2022/03/23 05:16:26;;;;;;;31.10;15.60;;;0.50;55.50;;;;;;5019882;28;20186;-61
2022/03/23 05:18:52;;;;;;;22.87;14.23;;;0.50;55.60;;;;;;5022905;28;20256;-60
2022/03/23 05:21:17;;;;;;;26.47;14.60;;;0.40;55.60;;;;;;5030532;28;20217;-59
2022/03/23 05:23:43;;;;;;;30.90;15.80;;;0.40;55.70;;;;;;5028253;28;20367;-60
2022/03/23 05:26:09;;;;;;;35.87;14.20;;;0.40;55.70;;;;;;5025164;28;20651;-60
2022/03/23 05:28:35;;;;;;;36.20;14.87;;;0.40;55.80;;;;;;5028170;28;20312;-59
2022/03/23 05:31:01;;;;;;;28.17;14.60;;;0.40;56.10;;;;;;5018908;28;20555;-60
2022/03/23 05:33:26;;;;;;;29.10;14.40;;;0.40;56.20;;;;;;5019514;28;20210;-61
2022/03/23 05:35:52;;;;;;;27.70;14.20;;;0.40;56.30;;;;;;5021395;28;20180;-59
2022/03/23 05:38:17;;;;;;;32.23;14.93;;;0.40;56.60;;;;;;5022244;28;20177;-60
2022/03/23 05:40:43;;;;;;;32.27;15.57;;;0.40;56.70;;;;;;5023062;28;20205;-61
2022/03/23 05:43:09;;;;;;;35.33;16.10;;;0.40;56.70;;;;;;5015956;28;20176;-59
2022/03/23 05:45:35;;;;;;;30.40;14.17;;;0.50;56.90;;;;;;5017984;28;20195;-58
2022/03/23 05:48:01;;;;;;;33.97;14.23;;;0.40;56.70;;;;;;5026288;28;20270;-60
2022/03/23 05:50:27;;;;;;;33.13;15.50;;;0.50;56.80;;;;;;5025739;28;20533;-59
2022/03/23 05:52:52;;;;;;;27.70;15.10;;;0.50;56.90;;;;;;5034543;28;20456;-59
2022/03/23 05:55:18;;;;;;;29.60;14.80;;;0.50;57.10;;;;;;5018412;28;20182;-59
2022/03/23 05:57:44;;;;;;;26.33;13.90;;;0.50;57.10;;;;;;5024901;28;20185;-59
2022/03/23 06:00:10;;;;;;;27.70;13.90;;;0.50;57.10;;;;;;5021351;28;20202;-64
2022/03/23 06:02:36;;;;;;;36.53;15.83;;;0.60;57.40;;;;;;5023821;28;20239;-59
2022/03/23 06:05:01;;;;;;;45.77;16.10;;;0.50;57.40;;;;;;5025378;28;20796;-59
2022/03/23 06:07:27;;;;;;;27.90;14.97;;;0.60;57.50;;;;;;5027322;28;20203;-59
2022/03/23 06:09:53;;;;;;;30.70;14.50;;;0.60;57.40;;;;;;5023618;28;20209;-60
2022/03/23 06:12:20;;;;;;;28.73;15.07;;;0.60;57.40;;;;;;5030316;28;20640;-60
2022/03/23 06:14:47;;;;;;;37.40;15.67;;;0.70;57.40;;;;;;5031748;28;20512;-60
2022/03/23 06:17:12;;;;;;;31.73;16.70;;;0.80;57.40;;;;;;5016681;28;20450;-59
2022/03/23 06:19:38;;;;;;;32.60;15.00;;;0.80;57.30;;;;;;5032060;28;20755;-60
2022/03/23 06:22:05;;;;;;;27.50;15.20;;;0.80;57.50;;;;;;5033795;28;20451;-60
2022/03/23 06:24:31;;;;;;;37.23;15.10;;;0.90;57.50;;;;;;5031539;28;20441;-60
2022/03/23 06:26:57;;;;;;;39.40;16.13;;;1.00;57.60;;;;;;5023257;28;20451;-59
2022/03/23 06:29:22;;;;;;;31.93;15.33;;;1.00;57.40;;;;;;5028331;28;20425;-58
2022/03/23 06:31:48;;;;;;;37.73;15.50;;;1.10;57.40;;;;;;5025139;28;20297;-60
2022/03/23 06:34:14;;;;;;;31.33;14.63;;;1.10;57.20;;;;;;5029168;28;20617;-60
2022/03/23 06:36:40;;;;;;;26.80;13.90;;;1.20;57.30;;;;;;5031517;28;20190;-59
2022/03/23 06:39:06;;;;;;;29.73;14.60;;;1.30;57.40;;;;;;5029648;28;20938;-60
2022/03/23 06:41:32;;;;;;;24.70;14.50;;;1.30;57.20;;;;;;5031504;28;20690;-60
2022/03/23 06:43:58;;;;;;;36.33;14.97;;;1.40;57.10;;;;;;5034865;28;20174;-59
2022/03/23 06:46:24;;;;;;;36.83;16.13;;;1.50;56.90;;;;;;5030961;28;20450;-61
2022/03/23 06:48:50;;;;;;;29.77;15.10;;;1.50;56.60;;;;;;5037470;28;20586;-59
2022/03/23 06:51:16;;;;;;;29.37;15.33;;;1.60;56.50;;;;;;5035777;28;20197;-59
2022/03/23 06:53:42;;;;;;;26.70;14.20;;;1.60;56.30;;;;;;5040165;28;20269;-60
2022/03/23 06:56:08;;;;;;;26.37;15.10;;;1.70;56.40;;;;;;5032460;28;20192;-58
2022/03/23 06:58:34;;;;;;;28.10;14.80;;;1.80;56.40;;;;;;5041501;28;20184;-59
2022/03/23 07:01:00;;;;;;;27.33;14.53;;;1.80;56.30;;;;;;5037485;28;20839;-61
2022/03/23 07:03:27;;;;;;;27.70;15.17;;;1.90;56.20;;;;;;5038182;28;20876;-60
2022/03/23 07:05:53;;;;;;;37.90;16.63;;;2.00;56.20;;;;;;5028139;28;20229;-60
2022/03/23 07:11:06;;;;;;;38.80;17.40;;;2.20;56.30;;;;;;5040262;28;20208;-59
2022/03/23 07:13:32;;;;;;;34.30;15.90;;;2.30;56.20;;;;;;5038014;28;20550;-59
2022/03/23 07:15:58;;;;;;;35.10;16.80;;;2.40;56.10;;;;;;5031935;28;20430;-60
2022/03/23 07:18:24;;;;;;;36.57;17.27;;;2.50;56.10;;;;;;5039131;28;20467;-62
2022/03/23 07:20:50;;;;;;;39.60;17.60;;;2.50;56.20;;;;;;5031354;28;20655;-58
2022/03/23 07:23:15;;;;;;;46.77;17.07;;;2.60;56.40;;;;;;5035483;28;20438;-61
2022/03/23 07:25:41;;;;;;;34.47;17.43;;;2.70;56.40;;;;;;5035050;28;20527;-59
2022/03/23 07:28:07;;;;;;;34.03;16.77;;;2.80;56.30;;;;;;5033767;28;20176;-61
2022/03/23 07:30:34;;;;;;;32.20;17.10;;;2.90;56.50;;;;;;5039326;28;20201;-59
2022/03/23 07:33:00;;;;;;;36.47;17.10;;;2.90;56.10;;;;;;5033065;28;20831;-60
2022/03/23 07:35:26;;;;;;;32.87;17.10;;;3.00;56.00;;;;;;5030332;28;21098;-59
2022/03/23 07:37:52;;;;;;;28.37;15.33;;;3.10;56.00;;;;;;5033084;28;20516;-60
2022/03/23 07:40:18;;;;;;;30.43;16.67;;;3.20;56.40;;;;;;5038213;28;20194;-60
2022/03/23 07:42:44;;;;;;;36.43;17.30;;;3.30;56.90;;;;;;5036328;28;20231;-59
2022/03/23 07:45:10;;;;;;;33.60;16.10;;;3.50;56.80;;;;;;5038662;28;20434;-58
2022/03/23 07:47:36;;;;;;;46.60;16.87;;;3.60;56.80;;;;;;5025159;28;20177;-60
2022/03/23 07:50:01;;;;;;;30.97;16.33;;;3.70;56.70;;;;;;5029547;28;20457;-59
2022/03/23 07:52:27;;;;;;;26.03;15.67;;;3.80;56.10;;;;;;5037983;28;20206;-59
2022/03/23 07:54:53;;;;;;;34.00;17.27;;;3.90;55.80;;;;;;5035404;28;20175;-60
2022/03/23 07:57:19;;;;;;;40.80;16.80;;;4.00;55.70;;;;;;5036167;28;20183;-59
2022/03/23 07:59:46;;;;;;;29.00;15.60;;;4.20;55.70;;;;;;5023715;28;20450;-60
2022/03/23 08:02:12;;;;;;;30.83;16.83;;;4.30;55.40;;;;;;5039604;28;20262;-59
2022/03/23 08:04:38;;;;;;;48.07;16.70;;;4.40;55.00;;;;;;5032604;28;20528;-59
2022/03/23 08:07:04;;;;;;;38.17;17.77;;;4.60;54.80;;;;;;5024578;28;20442;-56
2022/03/23 08:09:30;;;;;;;35.87;17.20;;;4.70;54.50;;;;;;5038536;28;20185;-60
2022/03/23 08:11:56;;;;;;;33.93;18.03;;;4.80;54.20;;;;;;5030653;28;20505;-60
2022/03/23 08:14:23;;;;;;;33.30;17.20;;;5.00;54.20;;;;;;5036133;28;21005;-60
2022/03/23 08:16:49;;;;;;;29.27;16.97;;;5.10;54.00;;;;;;5034948;28;20434;-59
2022/03/23 08:19:15;;;;;;;44.43;16.80;;;5.30;53.90;;;;;;5031699;28;20433;-59
2022/03/23 08:21:40;;;;;;;36.23;16.73;;;5.40;54.00;;;;;;5028942;28;20699;-59
2022/03/23 08:24:06;;;;;;;34.37;17.40;;;5.60;53.60;;;;;;5034562;28;20225;-59
2022/03/23 08:26:32;;;;;;;35.93;17.27;;;5.80;53.20;;;;;;5019344;28;20227;-59
2022/03/23 08:28:57;;;;;;;28.77;13.57;;;5.90;52.60;;;;;;5025549;28;20257;-59
2022/03/23 08:31:23;;;;;;;39.70;15.33;;;6.00;52.20;;;;;;5025205;28;20199;-59
2022/03/23 08:33:49;;;;;;;30.70;16.13;;;6.20;52.00;;;;;;5025477;28;20179;-59
2022/03/23 08:36:15;;;;;;;31.50;16.80;;;6.30;52.20;;;;;;5023631;28;21006;-59
2022/03/23 08:38:40;;;;;;;27.93;14.53;;;6.40;51.60;;;;;;5028855;28;20200;-59
2022/03/23 08:41:06;;;;;;;30.63;14.60;;;6.60;51.10;;;;;;5028621;28;20222;-58
2022/03/23 08:43:32;;;;;;;30.67;16.20;;;6.70;50.50;;;;;;5030673;28;20182;-58
2022/03/23 08:46:00;;;;;;;26.10;15.30;;;6.90;50.30;;;;;;5021545;28;20175;-58
2022/03/23 08:48:26;;;;;;;29.87;14.93;;;7.00;50.10;;;;;;5041226;28;20434;-58
2022/03/23 08:50:52;;;;;;;26.63;15.73;;;7.20;50.20;;;;;;5026949;28;20467;-59
2022/03/23 08:53:18;;;;;;;28.83;14.87;;;7.40;49.90;;;;;;5028438;28;20580;-59
2022/03/23 08:55:44;;;;;;;26.80;15.77;;;7.60;49.80;;;;;;5025279;28;21099;-59
2022/03/23 08:58:11;;;;;;;30.77;14.80;;;7.80;50.10;;;;;;5034249;28;20436;-59
2022/03/23 09:00:37;;;;;;;35.33;15.10;;;8.00;49.60;;;;;;5026768;28;21041;-59
2022/03/23 09:03:03;;;;;;;24.83;14.43;;;8.20;49.30;;;;;;5021881;28;20437;-59
2022/03/23 09:05:30;;;;;;;27.87;12.70;;;8.40;48.80;;;;;;5023733;28;20171;-59
2022/03/23 09:07:55;;;;;;;21.40;12.00;;;8.60;48.10;;;;;;5026720;28;21194;-59
2022/03/23 09:10:23;;;;;;;20.80;11.83;;;8.90;47.60;;;;;;5024564;28;20559;-59
2022/03/23 09:12:49;;;;;;;25.07;13.23;;;9.10;46.80;;;;;;5025345;28;20207;-59
2022/03/23 09:15:16;;;;;;;21.17;12.70;;;9.30;46.20;;;;;;5024471;28;20410;-58
2022/03/23 09:17:43;;;;;;;23.33;12.87;;;9.50;46.10;;;;;;5024593;28;20187;-59
2022/03/23 09:20:11;;;;;;;19.90;11.90;;;9.80;45.90;;;;;;5019024;28;20546;-59
2022/03/23 09:22:38;;;;;;;21.30;11.30;;;10.00;45.40;;;;;;5026016;28;20440;-60
2022/03/23 09:25:06;;;;;;;26.40;12.80;;;10.30;45.00;;;;;;5025983;28;20438;-59
2022/03/23 09:27:38;;;;;;;19.73;11.80;;;10.50;44.20;;;;;;5026009;28;20439;-59
2022/03/23 09:30:05;;;;;;;19.00;11.63;;;10.70;43.60;;;;;;5024199;28;20538;-59
2022/03/23 09:32:31;;;;;;;23.57;13.07;;;11.00;43.10;;;;;;5024940;28;20466;-58
2022/03/23 09:34:57;;;;;;;19.70;11.77;;;11.20;42.30;;;;;;5023910;28;20946;-59
2022/03/23 09:40:07;;;;;;;20.80;11.37;;;11.70;41.20;;;;;;5032323;28;20206;-59
2022/03/23 09:42:34;;;;;;;17.97;10.60;;;12.00;39.40;;;;;;5031159;28;20441;-60
2022/03/23 09:45:00;;;;;;;25.47;12.20;;;12.30;37.60;;;;;;5024328;28;20427;-60
2022/03/23 09:47:26;;;;;;;21.27;10.93;;;12.50;36.00;;;;;;5023170;28;20433;-60
2022/03/23 09:49:52;;;;;;;17.50;11.17;;;12.70;35.60;;;;;;5025340;28;20454;-60
2022/03/23 09:52:18;;;;;;;17.03;10.93;;;13.00;35.80;;;;;;5020868;28;20477;-60
2022/03/23 09:54:45;;;;;;;19.87;11.17;;;13.20;34.70;;;;;;5019500;28;20195;-60
2022/03/23 09:57:12;;;;;;;20.50;11.20;;;13.40;34.50;;;;;;5024538;28;20188;-59
2022/03/23 09:59:37;;;;;;;15.70;10.87;;;13.60;34.40;;;;;;5030927;28;20432;-60
2022/03/23 10:02:03;;;;;;;17.27;11.03;;;13.90;34.30;;;;;;5025862;28;20438;-60
2022/03/23 10:05:06;;;;;;;16.33;11.40;;;14.10;33.30;;;;;;5026768;28;20176;-60
2022/03/23 10:07:45;;;;;;;14.70;10.90;;;14.20;32.60;;;;;;5021923;28;20283;-59
2022/03/23 10:10:43;;;;;;;15.27;10.70;;;14.40;32.00;;;;;;5023036;28;20473;-61
2022/03/23 10:13:27;;;;;;;14.23;10.70;;;14.60;31.70;;;;;;5025834;28;20548;-61
2022/03/23 10:16:31;;;;;;;17.07;10.83;;;14.80;30.10;;;;;;5032021;28;20434;-61
2022/03/23 10:18:58;;;;;;;18.30;11.10;;;14.90;30.50;;;;;;5019968;28;20434;-60
2022/03/23 10:21:26;;;;;;;15.33;10.50;;;15.00;29.70;;;;;;5028435;28;20438;-61
2022/03/23 10:24:12;;;;;;;17.23;10.93;;;15.10;29.90;;;;;;5033195;28;20433;-60
2022/03/23 10:26:41;;;;;;;16.73;11.07;;;15.20;30.20;;;;;;5019935;28;20425;-60
2022/03/23 10:29:22;;;;;;;20.97;10.50;;;15.30;29.70;;;;;;5026778;28;20434;-60
2022/03/23 10:32:02;;;;;;;15.67;11.03;;;15.40;29.60;;;;;;5029052;28;20458;-59
2022/03/23 10:35:00;;;;;;;13.50;10.57;;;15.60;29.80;;;;;;5023744;28;20460;-60
2022/03/23 10:37:28;;;;;;;20.30;11.30;;;15.70;29.00;;;;;;5004280;28;20449;-59
2022/03/23 10:39:56;;;;;;;19.27;11.67;;;15.70;28.30;;;;;;5039316;28;20454;-60
2022/03/23 10:42:25;;;;;;;16.20;11.00;;;15.80;28.90;;;;;;5031244;28;20417;-60
2022/03/23 10:45:13;;;;;;;19.80;10.90;;;15.90;29.40;;;;;;5023179;28;20902;-60
2022/03/23 10:47:40;;;;;;;16.53;11.33;;;16.00;29.70;;;;;;5023032;28;20521;-60
2022/03/23 10:50:19;;;;;;;20.50;10.80;;;16.10;28.80;;;;;;5021715;28;20457;-60
2022/03/23 10:52:57;;;;;;;16.67;11.13;;;16.30;28.60;;;;;;5028272;28;20461;-59
2022/03/23 10:55:25;;;;;;;13.40;10.80;;;16.40;28.60;;;;;;5026174;28;20425;-59
2022/03/23 11:01:15;;;;;;;21.23;13.07;;;16.50;28.80;;;;;;5022041;28;20439;-60
2022/03/23 11:03:48;;;;;;;21.67;11.47;;;16.60;28.50;;;;;;5027039;28;20418;-60
2022/03/23 11:06:16;;;;;;;31.40;11.47;;;16.60;27.90;;;;;;5022611;28;20435;-61
2022/03/23 11:08:44;;;;;;;18.80;12.23;;;16.70;28.00;;;;;;5030230;28;20418;-60
2022/03/23 11:16:48;;;;;;;23.07;12.03;;;17.00;28.60;;;;;;5020890;28;20449;-60
2022/03/23 11:19:19;;;;;;;18.03;11.03;;;17.20;28.30;;;;;;5019711;28;20441;-55
2022/03/23 11:22:11;;;;;;;14.63;10.90;;;17.30;27.40;;;;;;5022171;28;20937;-60
2022/03/23 11:24:46;;;;;;;15.83;11.23;;;17.40;27.90;;;;;;5026004;28;20445;-55
2022/03/23 11:27:17;;;;;;;15.80;11.70;;;17.50;28.20;;;;;;5026550;28;20433;-59
2022/03/23 11:29:43;;;;;;;18.90;12.10;;;17.70;28.00;;;;;;5029146;28;20448;-57
2022/03/23 11:32:27;;;;;;;18.60;12.03;;;17.80;27.10;;;;;;5024157;28;20990;-57
2022/03/23 11:34:56;;;;;;;17.53;11.97;;;17.90;27.50;;;;;;5023227;28;20441;-55
2022/03/23 11:37:23;;;;;;;17.30;12.03;;;18.00;26.60;;;;;;5022872;28;20893;-59
2022/03/23 11:39:50;;;;;;;15.20;11.40;;;18.10;27.10;;;;;;5022773;28;20881;-61
2022/03/23 11:42:19;;;;;;;14.73;11.17;;;18.30;27.20;;;;;;5034070;28;20441;-58
2022/03/23 11:44:46;;;;;;;15.90;11.03;;;18.50;27.30;;;;;;5027637;28;20942;-59
2022/03/23 11:47:42;;;;;;;14.73;10.87;;;18.70;27.50;;;;;;5029948;28;20522;-59
2022/03/23 11:50:26;;;;;;;14.03;11.17;;;18.80;26.80;;;;;;5020084;28;20462;-59
2022/03/23 11:53:04;;;;;;;17.43;12.33;;;18.90;26.60;;;;;;5018052;28;20869;-59
2022/03/23 11:55:53;;;;;;;15.60;10.50;;;19.10;26.10;;;;;;5025031;28;20526;-59
2022/03/23 11:58:23;;;;;;;14.03;9.87;;;19.20;26.00;;;;;;5029881;28;20488;-59
2022/03/23 12:01:07;;;;;;;15.63;10.77;;;19.40;26.10;;;;;;5027486;28;20450;-60
2022/03/23 12:03:41;;;;;;;17.83;12.33;;;19.60;26.10;;;;;;5031447;28;21047;-60
2022/03/23 12:06:12;;;;;;;19.20;10.20;;;19.70;26.40;;;;;;5026516;28;20445;-60
2022/03/23 12:08:59;;;;;;;12.07;9.77;;;19.90;26.40;;;;;;5024600;28;20441;-60
2022/03/23 12:11:41;;;;;;;15.87;10.53;;;20.00;26.70;;;;;;5025161;28;20547;-59
2022/03/23 12:14:26;;;;;;;13.40;9.10;;;20.20;25.90;;;;;;5024326;28;20461;-60
2022/03/23 12:16:53;;;;;;;18.70;10.27;;;20.40;25.40;;;;;;5021631;28;20727;-63
2022/03/23 12:19:28;;;;;;;14.23;9.40;;;20.50;25.00;;;;;;5021053;28;20434;-60
2022/03/23 12:21:57;;;;;;;14.90;10.77;;;20.60;26.00;;;;;;5027926;28;20699;-61
2022/03/23 12:24:35;;;;;;;13.47;9.80;;;20.70;24.60;;;;;;5022073;28;20442;-61
2022/03/23 12:27:07;;;;;;;12.97;9.30;;;20.70;24.30;;;;;;5033562;28;20438;-61
2022/03/23 12:29:38;;;;;;;16.87;9.90;;;20.80;24.30;;;;;;5019317;28;20860;-61
2022/03/23 12:32:08;;;;;;;12.53;10.13;;;20.80;23.10;;;;;;5022613;28;20482;-61
2022/03/23 12:34:36;;;;;;;13.83;9.87;;;20.80;24.50;;;;;;5022439;28;20434;-62
2022/03/23 12:37:11;;;;;;;15.23;10.00;;;20.90;24.80;;;;;;5026234;28;20666;-61
2022/03/23 12:39:40;;;;;;;13.60;9.10;;;20.90;24.40;;;;;;5023800;28;20449;-61
2022/03/23 12:42:12;;;;;;;11.77;9.73;;;21.00;24.00;;;;;;5033272;28;20447;-61
2022/03/23 12:44:40;;;;;;;12.70;9.17;;;21.00;23.20;;;;;;5015745;28;20423;-60
2022/03/23 12:47:20;;;;;;;15.33;9.37;;;21.10;23.30;;;;;;5016360;28;20458;-62
2022/03/23 12:58:13;;;;;;;12.33;9.80;;;21.60;23.60;;;;;;5018598;28;20449;-63
2022/03/23 13:00:44;;;;;;;10.50;8.97;;;21.70;22.80;;;;;;5012409;28;20537;-61
2022/03/23 13:03:18;;;;;;;14.93;9.93;;;21.80;23.20;;;;;;5011535;28;20437;-60
2022/03/23 13:05:59;;;;;;;14.87;9.10;;;21.80;23.50;;;;;;5029241;28;21292;-60
2022/03/23 13:08:29;;;;;;;12.13;9.93;;;21.90;22.90;;;;;;5013282;28;20449;-62
2022/03/23 13:11:00;;;;;;;13.93;8.77;;;22.10;22.70;;;;;;5016973;28;20589;-62
2022/03/23 13:13:32;;;;;;;11.73;9.40;;;22.10;21.40;;;;;;5017743;28;20466;-65
2022/03/23 13:15:59;;;;;;;11.97;9.20;;;22.10;21.80;;;;;;5016607;28;21030;-63
2022/03/23 13:18:26;;;;;;;13.20;9.03;;;22.20;21.80;;;;;;5020390;28;20528;-64